EST,Max TemperatureF,Mean TemperatureF,Min TemperatureF,Max Dew PointF,MeanDew PointF,Min DewpointF,Max Humidity, Mean Humidity, Min Humidity, Max Sea Level PressureIn, Mean Sea Level PressureIn, Min Sea Level PressureIn, Max VisibilityMiles, Mean VisibilityMiles, Min VisibilityMiles, Max Wind SpeedMPH, Mean Wind SpeedMPH, Max Gust SpeedMPH,PrecipitationIn, CloudCover, Events, WindDirDegrees
2013-2-1,32,28,23,21,12,5,80,49,34,30.28,30.00,29.82,10,10,2,18,8,32,0.00,1,,278
2013-2-2,30,24,19,27,13,7,100,60,37,30.31,30.20,30.02,10,9,2,14,6,20,0.01,2,,250
2013-2-3,32,28,23,28,24,14,100,84,55,30.02,29.88,29.80,10,8,1,14,1,25,0.01,5,,287
2013-2-4,32,26,21,25,14,10,80,58,44,30.03,29.96,29.87,10,10,7,15,7,23,0.00,2,,266
2013-2-5,33,32,30,32,29,25,100,90,80,29.94,29.90,29.87,10,7,2,7,2,,0.00,7,,75
2013-2-6,39,32,26,32,26,19,100,78,52,30.35,30.13,29.92,10,7,1,14,3,21,0.00,4,,283
2013-2-7,35,28,21,25,19,14,93,66,41,30.47,30.39,30.26,10,10,10,9,3,,0.00,1,,81
2013-2-8,35,34,33,34,32,27,100,90,75,30.25,29.89,29.69,10,7,1,16,9,23,0.11,8,,29
2013-2-9,33,30,24,32,19,10,100,65,44,30.37,30.10,29.78,10,8,1,17,9,26,0.05,2,,309
2013-2-10,41,30,19,27,14,10,75,55,29,30.48,30.39,30.29,10,10,10,8,3,,0.00,0,,212
2013-2-11,50,42,33,46,38,27,100,90,75,30.30,29.92,29.66,10,5,0,12,3,18,0.23,7,,211
2013-2-12,46,39,32,37,28,27,87,62,46,29.98,29.90,29.77,10,10,10,16,7,28,0.00,2,,292
2013-2-13,44,35,26,34,29,25,100,80,53,29.96,29.81,29.67,10,8,1,7,1,,0.09,2,,67
2013-2-14,46,39,32,34,32,28,100,81,53,30.00,29.91,29.72,10,7,1,8,2,,0.01,2,,262
2013-2-15,57,44,32,36,32,28,100,68,38,30.01,29.96,29.91,10,9,3,12,4,18,0.03,3,,255
2013-2-16,37,34,32,34,27,14,100,75,48,29.98,29.89,29.77,10,8,3,13,4,20,0.02,3,,348
2013-2-17,32,28,23,21,9,1,74,44,34,30.07,29.84,29.74,10,10,1,18,10,33,0.00,1,,311
2013-2-18,35,28,21,18,10,5,58,47,35,30.31,30.21,30.08,10,10,10,16,9,31,0.00,0,,274
2013-2-19,44,38,32,43,30,18,93,74,53,30.18,29.92,29.70,10,9,3,17,6,23,0.12,3,,205
2013-2-20,35,30,26,28,15,10,75,51,41,30.05,29.92,29.78,10,10,10,18,11,31,0.00,3,,287
2013-2-21,35,30,26,18,15,12,64,54,44,30.30,30.12,30.03,10,10,10,17,9,28,0.00,4,,306
2013-2-22,37,30,24,32,23,18,87,69,56,30.39,30.31,30.24,10,10,10,8,3,,0.00,3,,98
2013-2-23,46,40,33,45,39,32,100,95,87,30.24,29.99,29.80,10,3,0,14,4,21,0.04,8,,59
2013-2-24,46,39,32,37,31,21,100,76,53,30.03,29.86,29.77,10,9,2,17,4,25,0.00,5,,305
2013-2-25,44,37,30,28,26,23,93,67,49,30.23,30.14,30.03,10,10,10,8,4,,0.00,2,,320
2013-2-26,44,35,26,36,31,25,100,83,57,30.24,30.11,29.78,10,9,3,24,6,33,0.14,4,,85
2013-2-27,51,44,37,46,39,36,100,82,62,29.75,29.60,29.50,10,6,1,24,12,33,0.08,8,,18
2013-2-28,46,42,35,36,32,27,87,68,49,29.67,29.62,29.58,10,10,10,10,3,16,0.00,5,,283